^^
Grace C. Lehan Memorial Weather Station Historical Data
Daily Summary for April 13, 2022 Units:  Both    English   Metric
Daily Weekly Monthly Yearly
  High: Low: Average:
Temperature: 77.6 °F /  25.3 °C 60 °F /  15.6 °C 68.1 °F /  20.1 °C
Dew Point: 57.5 °F /  14.2 °C 50.7 °F /  10.4 °C 53.7 °F /  12.1 °C
Humidity: 78.3% 45.2% 61%
Wind Speed: 4.5mph /  7.2km/h - 0.6mph /  1km/h
Wind Gust: 14mph /  22.5km/h - -
Wind- - SW
Pressure: 30.07 in /  1018.2 hPa 30.01 in /  1016.1 hPa -
Precipitation: 0.00 in /  0 mm    
 
 
Tabular Data for April 13, 2022
Time Temperature Dew Point Pressure Wind Wind Speed Wind Gust Humidity Rainfall Rate (Hourly) solar
00:00 66.7 °F /  19.3 °C 50.7 °F /  10.4 °C 30.01in /  1016.1hPa Calm   2mph /  3.2km/h 56.3% 0.00in /  0mm 0 W/m2
00:09 66.6 °F /  19.2 °C 50.9 °F /  10.5 °C 30.02in /  1016.5hPa Calm     57% 0.00in /  0mm 0 W/m2
00:14 66.5 °F /  19.2 °C 51 °F /  10.6 °C 30.02in /  1016.5hPa NNW 0.4mph /  0.6km/h 4mph /  6.4km/h 57.4% 0.00in /  0mm 0 W/m2
00:19 66.4 °F /  19.1 °C 51.2 °F /  10.7 °C 30.02in /  1016.5hPa Calm   4mph /  6.4km/h 58% 0.00in /  0mm 0 W/m2
00:24 66.3 °F /  19.1 °C 51.1 °F /  10.6 °C 30.02in /  1016.5hPa Calm   4mph /  6.4km/h 58% 0.00in /  0mm 0 W/m2
00:29 66.2 °F /  19 °C 51.2 °F /  10.7 °C 30.02in /  1016.5hPa NNW 0.2mph /  0.3km/h 4mph /  6.4km/h 58.5% 0.00in /  0mm 0 W/m2
00:34 66.1 °F /  18.9 °C 51.4 °F /  10.8 °C 30.03in /  1016.8hPa NNW 0.5mph /  0.8km/h 4mph /  6.4km/h 59% 0.00in /  0mm 0 W/m2
00:39 66 °F /  18.9 °C 51.3 °F /  10.7 °C 30.03in /  1016.8hPa NNW 0.2mph /  0.3km/h 3mph /  4.8km/h 59% 0.00in /  0mm 0 W/m2
00:44 65.9 °F /  18.8 °C 51.2 °F /  10.7 °C 30.03in /  1016.8hPa NNW 0.2mph /  0.3km/h 3mph /  4.8km/h 59% 0.00in /  0mm 0 W/m2
00:49 65.9 °F /  18.8 °C 51.5 °F /  10.8 °C 30.03in /  1016.8hPa NNW 0.1mph /  0.2km/h 3mph /  4.8km/h 59.8% 0.00in /  0mm 0 W/m2
00:54 65.8 °F /  18.8 °C 51.6 °F /  10.9 °C 30.03in /  1016.8hPa Calm   3mph /  4.8km/h 60% 0.00in /  0mm 0 W/m2
00:59 65.8 °F /  18.8 °C 51.6 °F /  10.9 °C 30.03in /  1016.8hPa Calm   3mph /  4.8km/h 60% 0.00in /  0mm 0 W/m2
01:04 65.8 °F /  18.8 °C 51.5 °F /  10.8 °C 30.03in /  1016.8hPa Calm   3mph /  4.8km/h 60% 0.00in /  0mm 0 W/m2
01:09 65.6 °F /  18.7 °C 51.8 °F /  11 °C 30.03in /  1016.8hPa Calm   1mph /  1.6km/h 61% 0.00in /  0mm 0 W/m2
01:14 65.5 °F /  18.6 °C 51.7 °F /  10.9 °C 30.03in /  1016.8hPa Calm   1mph /  1.6km/h 61% 0.00in /  0mm 0 W/m2
01:19 65.4 °F /  18.6 °C 51.8 °F /  11 °C 30.03in /  1016.8hPa NNW 0.2mph /  0.3km/h 4mph /  6.4km/h 61.5% 0.00in /  0mm 0 W/m2
01:24 65.3 °F /  18.5 °C 51.9 °F /  11.1 °C 30.03in /  1016.8hPa Calm   4mph /  6.4km/h 62% 0.00in /  0mm 0 W/m2
01:29 65.2 °F /  18.4 °C 51.9 °F /  11.1 °C 30.04in /  1017.2hPa Calm   4mph /  6.4km/h 62% 0.00in /  0mm 0 W/m2
01:34 65.1 °F /  18.4 °C 51.7 °F /  10.9 °C 30.04in /  1017.2hPa NNW 0.4mph /  0.6km/h 4mph /  6.4km/h 62% 0.00in /  0mm 0 W/m2
01:39 65 °F /  18.3 °C 52 °F /  11.1 °C 30.03in /  1016.8hPa Calm   4mph /  6.4km/h 62.8% 0.00in /  0mm 0 W/m2
01:44 64.9 °F /  18.3 °C 52 °F /  11.1 °C 30.03in /  1016.8hPa Calm   4mph /  6.4km/h 63% 0.00in /  0mm 0 W/m2
01:49 64.8 °F /  18.2 °C 51.9 °F /  11.1 °C 30.03in /  1016.8hPa NW 0.4mph /  0.6km/h 5mph /  8km/h 63% 0.00in /  0mm 0 W/m2
01:54 64.6 °F /  18.1 °C 52.2 °F /  11.2 °C 30.03in /  1016.8hPa Calm   5mph /  8km/h 63.9% 0.00in /  0mm 0 W/m2
01:59 64.5 °F /  18.1 °C 52.1 °F /  11.2 °C 30.03in /  1016.8hPa NW 0.4mph /  0.6km/h 5mph /  8km/h 64.1% 0.00in /  0mm 0 W/m2
02:04 64.4 °F /  18 °C 52 °F /  11.1 °C 30.03in /  1016.8hPa NW 0.4mph /  0.6km/h 6mph /  9.7km/h 64.3% 0.00in /  0mm 0 W/m2
02:09 64.3 °F /  17.9 °C 52.3 °F /  11.3 °C 30.03in /  1016.8hPa Calm   6mph /  9.7km/h 65% 0.00in /  0mm 0 W/m2
02:14 64.1 °F /  17.8 °C 52.1 °F /  11.2 °C 30.03in /  1016.8hPa Calm   6mph /  9.7km/h 65% 0.00in /  0mm 0 W/m2
02:19 64 °F /  17.8 °C 52 °F /  11.1 °C 30.03in /  1016.8hPa Calm   6mph /  9.7km/h 65% 0.00in /  0mm 0 W/m2
02:24 64 °F /  17.8 °C 52.3 °F /  11.3 °C 30.03in /  1016.8hPa Calm   6mph /  9.7km/h 65.8% 0.00in /  0mm 0 W/m2
02:29 63.9 °F /  17.7 °C 52.3 °F /  11.3 °C 30.03in /  1016.8hPa Calm   6mph /  9.7km/h 66% 0.00in /  0mm 0 W/m2
02:34 63.8 °F /  17.7 °C 52.3 °F /  11.3 °C 30.02in /  1016.5hPa NNW 0.1mph /  0.2km/h 6mph /  9.7km/h 66.3% 0.00in /  0mm 0 W/m2
02:39 63.6 °F /  17.6 °C 52.4 °F /  11.3 °C 30.02in /  1016.5hPa Calm   3mph /  4.8km/h 66.7% 0.00in /  0mm 0 W/m2
02:44 63.6 °F /  17.6 °C 52.4 °F /  11.3 °C 30.02in /  1016.5hPa Calm   3mph /  4.8km/h 67% 0.00in /  0mm 0 W/m2
02:49 63.5 °F /  17.5 °C 52.3 °F /  11.3 °C 30.02in /  1016.5hPa Calm   3mph /  4.8km/h 67% 0.00in /  0mm 0 W/m2
02:54 63.4 °F /  17.4 °C 52.5 °F /  11.4 °C 30.02in /  1016.5hPa Calm   3mph /  4.8km/h 67.6% 0.00in /  0mm 0 W/m2
02:59 63.3 °F /  17.4 °C 52.6 °F /  11.4 °C 30.02in /  1016.5hPa Calm   3mph /  4.8km/h 68% 0.00in /  0mm 0 W/m2
03:04 63.2 °F /  17.3 °C 52.5 °F /  11.4 °C 30.03in /  1016.8hPa Calm   3mph /  4.8km/h 68% 0.00in /  0mm 0 W/m2
03:09 63.1 °F /  17.3 °C 52.4 °F /  11.3 °C 30.03in /  1016.8hPa Calm     68% 0.00in /  0mm 0 W/m2
03:14 63 °F /  17.2 °C 52.4 °F /  11.3 °C 30.03in /  1016.8hPa Calm     68.2% 0.00in /  0mm 0 W/m2
03:19 63 °F /  17.2 °C 52.5 °F /  11.4 °C 30.03in /  1016.8hPa NNW 0.1mph /  0.2km/h 3mph /  4.8km/h 68.7% 0.00in /  0mm 0 W/m2
03:24 62.9 °F /  17.2 °C 52.6 °F /  11.4 °C 30.03in /  1016.8hPa Calm   3mph /  4.8km/h 69% 0.00in /  0mm 0 W/m2
03:29 62.8 °F /  17.1 °C 52.5 °F /  11.4 °C 30.03in /  1016.8hPa Calm   3mph /  4.8km/h 69% 0.00in /  0mm 0 W/m2
03:34 62.7 °F /  17.1 °C 52.7 °F /  11.5 °C 30.03in /  1016.8hPa Calm   3mph /  4.8km/h 69.7% 0.00in /  0mm 0 W/m2
03:39 62.6 °F /  17 °C 52.7 °F /  11.5 °C 30.03in /  1016.8hPa Calm     70% 0.00in /  0mm 0 W/m2
03:44 62.5 °F /  16.9 °C 52.6 °F /  11.4 °C 30.03in /  1016.8hPa Calm     70% 0.00in /  0mm 0 W/m2
03:49 62.4 °F /  16.9 °C 52.5 °F /  11.4 °C 30.03in /  1016.8hPa Calm     70% 0.00in /  0mm 0 W/m2
03:54 62.3 °F /  16.8 °C 52.8 °F /  11.6 °C 30.03in /  1016.8hPa Calm     71% 0.00in /  0mm 0 W/m2
03:59 62.2 °F /  16.8 °C 52.7 °F /  11.5 °C 30.03in /  1016.8hPa Calm     71% 0.00in /  0mm 0 W/m2
04:00 62.2 °F /  16.8 °C 52.7 °F /  11.5 °C 30.03in /  1016.8hPa Calm     71% 0.00in /  0mm 0 W/m2
04:09 62 °F /  16.7 °C 52.9 °F /  11.6 °C 30.04in /  1017.2hPa Calm     72% 0.00in /  0mm 0 W/m2
04:14 61.9 °F /  16.6 °C 52.8 °F /  11.6 °C 30.04in /  1017.2hPa Calm     72% 0.00in /  0mm 0 W/m2
04:19 61.8 °F /  16.6 °C 52.9 °F /  11.6 °C 30.04in /  1017.2hPa Calm     72.5% 0.00in /  0mm 0 W/m2
04:24 61.7 °F /  16.5 °C 52.9 °F /  11.6 °C 30.04in /  1017.2hPa Calm     73% 0.00in /  0mm 0 W/m2
04:29 61.6 °F /  16.4 °C 52.8 °F /  11.6 °C 30.04in /  1017.2hPa Calm     73% 0.00in /  0mm 0 W/m2
04:34 61.4 °F /  16.3 °C 52.8 °F /  11.6 °C 30.04in /  1017.2hPa Calm     73.3% 0.00in /  0mm 0 W/m2
04:39 61.3 °F /  16.3 °C 52.9 °F /  11.6 °C 30.04in /  1017.2hPa Calm     74% 0.00in /  0mm 0 W/m2
04:44 61.2 °F /  16.2 °C 52.9 °F /  11.6 °C 30.04in /  1017.2hPa Calm     74% 0.00in /  0mm 0 W/m2
04:49 61.1 °F /  16.2 °C 52.7 °F /  11.5 °C 30.05in /  1017.5hPa Calm     74% 0.00in /  0mm 0 W/m2
04:54 61 °F /  16.1 °C 52.9 °F /  11.6 °C 30.05in /  1017.5hPa Calm     74.7% 0.00in /  0mm 0 W/m2
04:59 60.9 °F /  16.1 °C 52.9 °F /  11.6 °C 30.05in /  1017.5hPa Calm     75% 0.00in /  0mm 0 W/m2
05:04 60.9 °F /  16.1 °C 52.9 °F /  11.6 °C 30.05in /  1017.5hPa Calm     75% 0.00in /  0mm 0 W/m2
05:09 60.8 °F /  16 °C 52.8 °F /  11.6 °C 30.05in /  1017.5hPa Calm     75% 0.00in /  0mm 0 W/m2
05:14 60.8 °F /  16 °C 52.8 °F /  11.6 °C 30.05in /  1017.5hPa Calm     75% 0.00in /  0mm 0 W/m2
05:19 60.8 °F /  16 °C 52.8 °F /  11.6 °C 30.05in /  1017.5hPa Calm     75% 0.00in /  0mm 0 W/m2
05:24 60.7 °F /  15.9 °C 52.7 °F /  11.5 °C 30.05in /  1017.5hPa Calm     75% 0.00in /  0mm 0 W/m2
05:29 60.7 °F /  15.9 °C 52.9 °F /  11.6 °C 30.05in /  1017.5hPa Calm     75.4% 0.00in /  0mm 0 W/m2
05:34 60.6 °F /  15.9 °C 53 °F /  11.7 °C 30.05in /  1017.5hPa Calm     76% 0.00in /  0mm 0 W/m2
05:39 60.5 °F /  15.8 °C 53 °F /  11.7 °C 30.05in /  1017.5hPa Calm     76% 0.00in /  0mm 0 W/m2
05:44 60.5 °F /  15.8 °C 52.9 °F /  11.6 °C 30.05in /  1017.5hPa Calm     76% 0.00in /  0mm 0 W/m2
05:49 60.4 °F /  15.8 °C 52.8 °F /  11.6 °C 30.05in /  1017.5hPa Calm   1mph /  1.6km/h 76% 0.00in /  0mm 0 W/m2
05:54 60.4 °F /  15.8 °C 52.8 °F /  11.6 °C 30.05in /  1017.5hPa Calm   1mph /  1.6km/h 76% 0.00in /  0mm 0 W/m2
05:59 60.3 °F /  15.7 °C 52.7 °F /  11.5 °C 30.05in /  1017.5hPa Calm   1mph /  1.6km/h 76% 0.00in /  0mm 0 W/m2
06:04 60.3 °F /  15.7 °C 52.7 °F /  11.5 °C 30.05in /  1017.5hPa Calm   1mph /  1.6km/h 76% 0.00in /  0mm 0 W/m2
06:09 60.2 °F /  15.7 °C 52.6 °F /  11.4 °C 30.05in /  1017.5hPa Calm     76% 0.00in /  0mm 0 W/m2
06:14 60.2 °F /  15.7 °C 52.6 °F /  11.4 °C 30.06in /  1017.8hPa Calm     76% 0.00in /  0mm 5 W/m2
06:19 60.1 °F /  15.6 °C 52.5 °F /  11.4 °C 30.06in /  1017.8hPa Calm     76% 0.00in /  0mm 5 W/m2
06:24 60.1 °F /  15.6 °C 52.5 °F /  11.4 °C 30.06in /  1017.8hPa NNW 0.1mph /  0.2km/h 3mph /  4.8km/h 76% 0.00in /  0mm 7 W/m2
06:29 60.1 °F /  15.6 °C 52.8 °F /  11.6 °C 30.06in /  1017.8hPa NNW 0.2mph /  0.3km/h 3mph /  4.8km/h 76.9% 0.00in /  0mm 9 W/m2
06:34 60 °F /  15.6 °C 52.8 °F /  11.6 °C 30.06in /  1017.8hPa Calm   3mph /  4.8km/h 77% 0.00in /  0mm 12 W/m2
06:39 60 °F /  15.6 °C 52.8 °F /  11.6 °C 30.06in /  1017.8hPa Calm     77% 0.00in /  0mm 44 W/m2
06:44 60 °F /  15.6 °C 52.8 °F /  11.6 °C 30.06in /  1017.8hPa Calm     77% 0.00in /  0mm 79 W/m2
06:49 60.1 °F /  15.6 °C 53.3 °F /  11.8 °C 30.06in /  1017.8hPa Calm     78% 0.00in /  0mm 79 W/m2
06:54 60.4 °F /  15.8 °C 53.6 °F /  12 °C 30.06in /  1017.8hPa Calm     78.3% 0.00in /  0mm 162 W/m2
06:59 60.8 °F /  16 °C 53.7 °F /  12.1 °C 30.06in /  1017.8hPa Calm     77.6% 0.00in /  0mm 206 W/m2
07:04 61.5 °F /  16.4 °C 54.2 °F /  12.3 °C 30.06in /  1017.8hPa Calm     76.9% 0.00in /  0mm 248 W/m2
07:09 62.6 °F /  17 °C 54.8 °F /  12.7 °C 30.06in /  1017.8hPa Calm     75.6% 0.00in /  0mm 248 W/m2
07:14 63.9 °F /  17.7 °C 55 °F /  12.8 °C 30.07in /  1018.2hPa Calm     72.8% 0.00in /  0mm 274 W/m2
07:19 65.1 °F /  18.4 °C 55 °F /  12.8 °C 30.07in /  1018.2hPa Calm     69.8% 0.00in /  0mm 221 W/m2
07:24 66 °F /  18.9 °C 55.2 °F /  12.9 °C 30.07in /  1018.2hPa Calm     68.1% 0.00in /  0mm 239 W/m2
07:29 66.8 °F /  19.3 °C 55.4 °F /  13 °C 30.07in /  1018.2hPa NNW 0.1mph /  0.2km/h 3mph /  4.8km/h 66.8% 0.00in /  0mm 255 W/m2
07:34 67.6 °F /  19.8 °C 55.4 °F /  13 °C 30.07in /  1018.2hPa NNW 0.2mph /  0.3km/h 3mph /  4.8km/h 64.9% 0.00in /  0mm 272 W/m2
07:39 68 °F /  20 °C 55.3 °F /  12.9 °C 30.07in /  1018.2hPa North 0.1mph /  0.2km/h 3mph /  4.8km/h 63.9% 0.00in /  0mm 288 W/m2
07:44 68.1 °F /  20.1 °C 54.8 °F /  12.7 °C 30.07in /  1018.2hPa WNW 1.1mph /  1.8km/h 8mph /  12.9km/h 62.5% 0.00in /  0mm 306 W/m2
07:49 68.1 °F /  20.1 °C 55.2 °F /  12.9 °C 30.07in /  1018.2hPa North 1.1mph /  1.8km/h 8mph /  12.9km/h 63.3% 0.00in /  0mm 323 W/m2
07:54 68.2 °F /  20.1 °C 55.2 °F /  12.9 °C 30.07in /  1018.2hPa Calm   8mph /  12.9km/h 63.2% 0.00in /  0mm 341 W/m2
07:59 68.4 °F /  20.2 °C 55.3 °F /  12.9 °C 30.07in /  1018.2hPa NNW 0.8mph /  1.3km/h 9mph /  14.5km/h 63% 0.00in /  0mm 362 W/m2
08:00 68.3 °F /  20.2 °C 55.2 °F /  12.9 °C 30.07in /  1018.2hPa Calm   9mph /  14.5km/h 63% 0.00in /  0mm 362 W/m2
08:09 68.2 °F /  20.1 °C 54.9 °F /  12.7 °C 30.07in /  1018.2hPa ENE 1.4mph /  2.3km/h 7mph /  11.3km/h 62.6% 0.00in /  0mm 397 W/m2
08:14 68 °F /  20 °C 55 °F /  12.8 °C 30.07in /  1018.2hPa NW 1.1mph /  1.8km/h 7mph /  11.3km/h 63% 0.00in /  0mm 411 W/m2
08:19 68.1 °F /  20.1 °C 55.2 °F /  12.9 °C 30.07in /  1018.2hPa NNE 0.7mph /  1.1km/h 7mph /  11.3km/h 63.3% 0.00in /  0mm 427 W/m2
08:24 68.5 °F /  20.3 °C 55.6 °F /  13.1 °C 30.07in /  1018.2hPa ENE 0.2mph /  0.3km/h 7mph /  11.3km/h 63.5% 0.00in /  0mm 443 W/m2
08:29 68.9 °F /  20.5 °C 55.8 °F /  13.2 °C 30.07in /  1018.2hPa East 0.3mph /  0.5km/h 7mph /  11.3km/h 62.8% 0.00in /  0mm 455 W/m2
08:34 69.3 °F /  20.7 °C 56 °F /  13.3 °C 30.07in /  1018.2hPa East 0.5mph /  0.8km/h 7mph /  11.3km/h 62.5% 0.00in /  0mm 475 W/m2
08:39 69.8 °F /  21 °C 56.6 °F /  13.7 °C 30.07in /  1018.2hPa NE 1.4mph /  2.3km/h 10mph /  16.1km/h 62.9% 0.00in /  0mm 489 W/m2
08:44 70.3 °F /  21.3 °C 56.4 °F /  13.6 °C 30.07in /  1018.2hPa NNW 1.5mph /  2.4km/h 10mph /  16.1km/h 61.3% 0.00in /  0mm 510 W/m2
08:49 70.8 °F /  21.6 °C 56.9 °F /  13.8 °C 30.07in /  1018.2hPa North 0.4mph /  0.6km/h 10mph /  16.1km/h 61.4% 0.00in /  0mm 520 W/m2
08:54 71.1 °F /  21.7 °C 56.8 °F /  13.8 °C 30.07in /  1018.2hPa ENE 1.2mph /  1.9km/h 10mph /  16.1km/h 60.6% 0.00in /  0mm 533 W/m2
08:59 70.9 °F /  21.6 °C 57.1 °F /  13.9 °C 30.07in /  1018.2hPa NNE 0.1mph /  0.2km/h 10mph /  16.1km/h 61.5% 0.00in /  0mm 547 W/m2
09:04 71.4 °F /  21.9 °C 57.2 °F /  14 °C 30.07in /  1018.2hPa North 0.8mph /  1.3km/h 10mph /  16.1km/h 60.9% 0.00in /  0mm 563 W/m2
09:09 71.9 °F /  22.2 °C 57.2 °F /  14 °C 30.07in /  1018.2hPa NNW 0.9mph /  1.4km/h 7mph /  11.3km/h 59.7% 0.00in /  0mm 577 W/m2
09:14 72.4 °F /  22.4 °C 57.2 °F /  14 °C 30.07in /  1018.2hPa NE 1.3mph /  2.1km/h 9mph /  14.5km/h 58.8% 0.00in /  0mm 592 W/m2
09:19 72.8 °F /  22.7 °C 56.9 °F /  13.8 °C 30.07in /  1018.2hPa East 1mph /  1.6km/h 9mph /  14.5km/h 57.4% 0.00in /  0mm 606 W/m2
09:24 72.8 °F /  22.7 °C 57 °F /  13.9 °C 30.07in /  1018.2hPa ENE 1mph /  1.6km/h 9mph /  14.5km/h 57.6% 0.00in /  0mm 619 W/m2
09:30 72.6 °F /  22.6 °C 57.5 °F /  14.2 °C 30.07in /  1018.2hPa ENE 1mph /  1.6km/h 11mph /  17.7km/h 59% 0.00in /  0mm 592 W/m2
10:00 72.2 °F /  22.3 °C 56.1 °F /  13.4 °C 30.07in /  1018.2hPa ENE 2mph /  3.2km/h 12mph /  19.3km/h 57% 0.00in /  0mm 676 W/m2
11:00 77 °F /  25 °C 56.4 °F /  13.6 °C 30.06in /  1017.8hPa WNW 2mph /  3.2km/h 13mph /  20.9km/h 49% 0.00in /  0mm 820 W/m2
11:30 75.9 °F /  24.4 °C 54.8 °F /  12.7 °C 30.06in /  1017.8hPa NW 2mph /  3.2km/h 11mph /  17.7km/h 48% 0.00in /  0mm 596 W/m2
12:04 75.4 °F /  24.1 °C 53.4 °F /  11.9 °C 30.06in /  1017.8hPa Calm   2mph /  3.2km/h 46.3% 0.00in /  0mm 323 W/m2
12:09 75.2 °F /  24 °C 54.2 °F /  12.3 °C 30.06in /  1017.8hPa NW 0.7mph /  1.1km/h 4mph /  6.4km/h 48% 0.00in /  0mm 455 W/m2
12:14 75.2 °F /  24 °C 54.2 °F /  12.3 °C 30.06in /  1017.8hPa NW 2.3mph /  3.7km/h 11mph /  17.7km/h 48% 0.00in /  0mm 476 W/m2
12:19 75.2 °F /  24 °C 53.5 °F /  11.9 °C 30.06in /  1017.8hPa WNW 1.4mph /  2.3km/h 11mph /  17.7km/h 46.8% 0.00in /  0mm 591 W/m2
12:24 75.2 °F /  24 °C 53.4 °F /  11.9 °C 30.06in /  1017.8hPa NW 4.5mph /  7.2km/h 14mph /  22.5km/h 46.7% 0.00in /  0mm 503 W/m2
12:29 75.2 °F /  24 °C 53.7 °F /  12.1 °C 30.06in /  1017.8hPa NW 0.9mph /  1.4km/h 14mph /  22.5km/h 47.2% 0.00in /  0mm 1209 W/m2
12:34 75.7 °F /  24.3 °C 54.4 °F /  12.4 °C 30.06in /  1017.8hPa NW 2mph /  3.2km/h 14mph /  22.5km/h 47.7% 0.00in /  0mm 1209 W/m2
12:39 75.8 °F /  24.3 °C 54.9 °F /  12.7 °C 30.06in /  1017.8hPa ENE 2.2mph /  3.5km/h 12mph /  19.3km/h 48.3% 0.00in /  0mm 155 W/m2
12:44 75.3 °F /  24.1 °C 54.8 °F /  12.7 °C 30.06in /  1017.8hPa NE 0.8mph /  1.3km/h 12mph /  19.3km/h 48.9% 0.00in /  0mm 220 W/m2
12:49 74.8 °F /  23.8 °C 54.9 °F /  12.7 °C 30.06in /  1017.8hPa NW 3.5mph /  5.6km/h 12mph /  19.3km/h 49.9% 0.00in /  0mm 287 W/m2
12:54 74.4 °F /  23.6 °C 54.7 °F /  12.6 °C 30.06in /  1017.8hPa NW 2.8mph /  4.5km/h 12mph /  19.3km/h 50.2% 0.00in /  0mm 388 W/m2
12:59 74.2 °F /  23.4 °C 54.5 °F /  12.5 °C 30.06in /  1017.8hPa NW 1.7mph /  2.7km/h 12mph /  19.3km/h 50.2% 0.00in /  0mm 434 W/m2
13:04 74.3 °F /  23.5 °C 55 °F /  12.8 °C 30.05in /  1017.5hPa NW 0.7mph /  1.1km/h 12mph /  19.3km/h 51% 0.00in /  0mm 1095 W/m2
13:09 74.9 °F /  23.8 °C 54.9 °F /  12.7 °C 30.05in /  1017.5hPa NW 1.1mph /  1.8km/h 7mph /  11.3km/h 49.7% 0.00in /  0mm 1005 W/m2
13:14 75.5 °F /  24.2 °C 54.8 °F /  12.7 °C 30.05in /  1017.5hPa NW 1.3mph /  2.1km/h 9mph /  14.5km/h 48.5% 0.00in /  0mm 1055 W/m2
13:19 75.9 °F /  24.4 °C 54.6 °F /  12.6 °C 30.04in /  1017.2hPa WNW 1.5mph /  2.4km/h 10mph /  16.1km/h 47.7% 0.00in /  0mm 334 W/m2
13:24 76.2 °F /  24.6 °C 55.1 °F /  12.8 °C 30.04in /  1017.2hPa NW 1mph /  1.6km/h 10mph /  16.1km/h 48% 0.00in /  0mm 1195 W/m2
13:29 76.4 °F /  24.7 °C 54.8 °F /  12.7 °C 30.04in /  1017.2hPa NNE 0.6mph /  1km/h 10mph /  16.1km/h 47.2% 0.00in /  0mm 425 W/m2
13:34 76.4 °F /  24.7 °C 55 °F /  12.8 °C 30.04in /  1017.2hPa ENE 2.7mph /  4.3km/h 10mph /  16.1km/h 47.5% 0.00in /  0mm 489 W/m2
13:39 76.4 °F /  24.7 °C 55.2 °F /  12.9 °C 30.04in /  1017.2hPa NNW 1.5mph /  2.4km/h 10mph /  16.1km/h 47.8% 0.00in /  0mm 489 W/m2
13:44 76.5 °F /  24.7 °C 55.3 °F /  12.9 °C 30.04in /  1017.2hPa NNW 0.9mph /  1.4km/h 10mph /  16.1km/h 47.8% 0.00in /  0mm 548 W/m2
13:49 76.4 °F /  24.7 °C 55.5 °F /  13.1 °C 30.04in /  1017.2hPa NNW 1.2mph /  1.9km/h 10mph /  16.1km/h 48.3% 0.00in /  0mm 464 W/m2
13:54 76.3 °F /  24.6 °C 55.8 °F /  13.2 °C 30.04in /  1017.2hPa NNW 0.8mph /  1.3km/h 10mph /  16.1km/h 49% 0.00in /  0mm 1141 W/m2
13:59 76.5 °F /  24.7 °C 55.2 °F /  12.9 °C 30.04in /  1017.2hPa NW 2.4mph /  3.9km/h 10mph /  16.1km/h 47.7% 0.00in /  0mm 1141 W/m2
14:04 76.7 °F /  24.8 °C 55.5 °F /  13.1 °C 30.04in /  1017.2hPa NW 1.2mph /  1.9km/h 10mph /  16.1km/h 47.8% 0.00in /  0mm 1067 W/m2
14:09 77.4 °F /  25.2 °C 55.2 °F /  12.9 °C 30.04in /  1017.2hPa WNW 4mph /  6.4km/h 12mph /  19.3km/h 46.3% 0.00in /  0mm 1176 W/m2
14:14 77.5 °F /  25.3 °C 55 °F /  12.8 °C 30.04in /  1017.2hPa NW 2.9mph /  4.7km/h 12mph /  19.3km/h 45.8% 0.00in /  0mm 371 W/m2
14:19 77.5 °F /  25.3 °C 55.5 °F /  13.1 °C 30.04in /  1017.2hPa NW 1.6mph /  2.6km/h 12mph /  19.3km/h 46.6% 0.00in /  0mm 1194 W/m2
14:24 77.5 °F /  25.3 °C 54.7 °F /  12.6 °C 30.03in /  1016.8hPa ENE 2.3mph /  3.7km/h 12mph /  19.3km/h 45.2% 0.00in /  0mm 1116 W/m2
14:29 77.3 °F /  25.2 °C 54.4 °F /  12.4 °C 30.03in /  1016.8hPa NNW 1.8mph /  2.9km/h 12mph /  19.3km/h 45.2% 0.00in /  0mm 1116 W/m2
14:34 77.2 °F /  25.1 °C 54.9 °F /  12.7 °C 30.03in /  1016.8hPa NNW 1.6mph /  2.6km/h 12mph /  19.3km/h 46.2% 0.00in /  0mm 223 W/m2
14:39 76.9 °F /  24.9 °C 54.6 °F /  12.6 °C 30.03in /  1016.8hPa North 1.7mph /  2.7km/h 9mph /  14.5km/h 46% 0.00in /  0mm 207 W/m2
14:44 76.5 °F /  24.7 °C 54.6 °F /  12.6 °C 30.03in /  1016.8hPa NW 2mph /  3.2km/h 9mph /  14.5km/h 46.7% 0.00in /  0mm 229 W/m2
14:49 76.2 °F /  24.6 °C 54.6 °F /  12.6 °C 30.03in /  1016.8hPa NW 1.7mph /  2.7km/h 9mph /  14.5km/h 47.2% 0.00in /  0mm 257 W/m2
14:54 76 °F /  24.4 °C 54.7 °F /  12.6 °C 30.03in /  1016.8hPa WNW 1mph /  1.6km/h 9mph /  14.5km/h 47.6% 0.00in /  0mm 1004 W/m2
14:59 76.1 °F /  24.5 °C 54.4 °F /  12.4 °C 30.03in /  1016.8hPa NNW 1.1mph /  1.8km/h 9mph /  14.5km/h 46.9% 0.00in /  0mm 1025 W/m2
15:04 76.5 °F /  24.7 °C 54.7 °F /  12.6 °C 30.02in /  1016.5hPa NNE 2.8mph /  4.5km/h 10mph /  16.1km/h 46.8% 0.00in /  0mm 997 W/m2
15:09 77.1 °F /  25.1 °C 55.3 °F /  12.9 °C 30.02in /  1016.5hPa NNW 1.1mph /  1.8km/h 10mph /  16.1km/h 46.9% 0.00in /  0mm 441 W/m2
15:14 77.6 °F /  25.3 °C 54.8 °F /  12.7 °C 30.02in /  1016.5hPa NE 1.8mph /  2.9km/h 10mph /  16.1km/h 45.4% 0.00in /  0mm 441 W/m2
15:19 77.4 °F /  25.2 °C 54.8 °F /  12.7 °C 30.02in /  1016.5hPa ENE 0.1mph /  0.2km/h 10mph /  16.1km/h 45.7% 0.00in /  0mm 320 W/m2
15:24 77.3 °F /  25.2 °C 55 °F /  12.8 °C 30.02in /  1016.5hPa NNW 1.8mph /  2.9km/h 10mph /  16.1km/h 46.1% 0.00in /  0mm 380 W/m2
15:29 77.2 °F /  25.1 °C 54.6 °F /  12.6 °C 30.02in /  1016.5hPa North 0.7mph /  1.1km/h 10mph /  16.1km/h 45.7% 0.00in /  0mm 457 W/m2
15:34 77.1 °F /  25.1 °C 54.4 °F /  12.4 °C 30.02in /  1016.5hPa WNW 2.1mph /  3.4km/h 10mph /  16.1km/h 45.5% 0.00in /  0mm 524 W/m2
15:39 77.3 °F /  25.2 °C 54.8 °F /  12.7 °C 30.02in /  1016.5hPa ENE 0.3mph /  0.5km/h 6mph /  9.7km/h 45.8% 0.00in /  0mm 403 W/m2
15:44 77.5 °F /  25.3 °C 54.9 °F /  12.7 °C 30.02in /  1016.5hPa NNE 1mph /  1.6km/h 6mph /  9.7km/h 45.7% 0.00in /  0mm 262 W/m2
15:49 77.4 °F /  25.2 °C 54.7 °F /  12.6 °C 30.01in /  1016.1hPa ENE 1.2mph /  1.9km/h 6mph /  9.7km/h 45.5% 0.00in /  0mm 244 W/m2
15:54 77.1 °F /  25.1 °C 54.9 °F /  12.7 °C 30.01in /  1016.1hPa ENE 0.8mph /  1.3km/h 6mph /  9.7km/h 46.2% 0.00in /  0mm 250 W/m2
15:59 76.8 °F /  24.9 °C 54.1 °F /  12.3 °C 30.01in /  1016.1hPa ENE 0.6mph /  1km/h 6mph /  9.7km/h 45.4% 0.00in /  0mm 239 W/m2
Hartford County Weather
Compliments of Weather Underground - 4 mb